Time;durP1;ratioP1;P1;durP2;ratioP2;P2;SDS_P1;SDS_P2;PMS_P1;PMS_P2;Temp;Humidity;BMP_temperature;BMP_pressure;BME280_temperature;BME280_humidity;BME280_pressure;Samples;Min_cycle;Max_cycle;Signal;HPM_P1;HPM_P2
2022/06/12 00:00:23;;;;;;;6.97;3.00;;;13.50;99.90;;;;;;5064096;28;20051;-77
2022/06/12 00:02:49;;;;;;;16.52;5.07;;;13.40;99.90;;;;;;5064289;28;20525;-81
2022/06/12 00:05:18;;;;;;;11.00;3.67;;;13.40;99.90;;;;;;5067338;28;20036;-77
2022/06/12 00:07:44;;;;;;;11.70;3.00;;;13.30;99.90;;;;;;5049924;28;20065;-78
2022/06/12 00:10:11;;;;;;;8.73;3.25;;;13.40;99.90;;;;;;5066130;28;20052;-78
2022/06/12 00:12:38;;;;;;;7.25;2.80;;;13.40;99.90;;;;;;5065892;28;20043;-79
2022/06/12 00:15:05;;;;;;;8.38;2.75;;;13.30;99.90;;;;;;5066132;28;20036;-80
2022/06/12 00:17:31;;;;;;;11.75;3.15;;;13.30;99.90;;;;;;5047840;28;20044;-78
2022/06/12 00:19:57;;;;;;;9.43;3.47;;;13.30;99.90;;;;;;5065279;28;20124;-79
2022/06/12 00:22:22;;;;;;;10.05;4.13;;;13.20;99.90;;;;;;5065184;28;20132;-77
2022/06/12 00:24:48;;;;;;;12.80;3.72;;;13.20;99.90;;;;;;5063744;28;20029;-76
2022/06/12 00:27:14;;;;;;;7.97;4.00;;;13.20;99.90;;;;;;5067593;28;20070;-79
2022/06/12 00:29:41;;;;;;;10.40;3.85;;;13.10;99.90;;;;;;5066595;28;20229;-78
2022/06/12 00:32:16;;;;;;;11.23;3.33;;;13.20;99.90;;;;;;5063074;28;20510;-79
2022/06/12 00:34:46;;;;;;;16.33;6.03;;;13.20;99.90;;;;;;5047199;28;20073;-78
2022/06/12 00:37:13;;;;;;;12.43;4.13;;;13.10;99.90;;;;;;5065840;28;20041;-78
2022/06/12 00:39:41;;;;;;;15.10;4.90;;;13.10;99.90;;;;;;5066538;28;20048;-76
2022/06/12 00:42:13;;;;;;;10.95;2.70;;;13.00;99.90;;;;;;5064264;28;20048;-77
2022/06/12 00:44:42;;;;;;;16.35;5.10;;;13.00;99.90;;;;;;5051953;28;20159;-78
2022/06/12 00:47:12;;;;;;;14.40;3.03;;;13.00;99.90;;;;;;5027817;28;20037;-77
2022/06/12 00:49:49;;;;;;;12.25;3.10;;;13.00;99.90;;;;;;5051944;28;20140;-77
2022/06/12 00:52:20;;;;;;;14.32;3.90;;;13.00;99.90;;;;;;5047918;28;20075;-77
2022/06/12 00:54:49;;;;;;;11.95;3.40;;;12.90;99.90;;;;;;5063439;28;20029;-77
2022/06/12 00:57:16;;;;;;;12.88;3.47;;;13.00;99.90;;;;;;5066437;28;20044;-78
2022/06/12 00:59:49;;;;;;;8.45;3.25;;;12.90;99.90;;;;;;5047821;28;20056;-78
2022/06/12 01:02:19;;;;;;;11.93;5.70;;;13.10;99.90;;;;;;5046808;28;20044;-80
2022/06/12 01:07:34;;;;;;;14.10;3.08;;;13.00;99.90;;;;;;5046811;28;20110;-79
2022/06/12 01:10:02;;;;;;;14.05;3.55;;;13.00;99.90;;;;;;5064381;28;20491;-79
2022/06/12 01:12:31;;;;;;;16.17;4.90;;;13.00;99.90;;;;;;5045942;28;20029;-79
2022/06/12 01:15:01;;;;;;;8.43;3.30;;;12.90;99.90;;;;;;5042327;28;20057;-78
2022/06/12 01:17:29;;;;;;;15.57;4.78;;;12.90;99.90;;;;;;5045066;28;20132;-79
2022/06/12 01:20:08;;;;;;;12.32;3.97;;;12.90;99.90;;;;;;5045680;28;20052;-79
2022/06/12 01:22:58;;;;;;;12.23;3.63;;;13.00;99.90;;;;;;5062993;28;20093;-78
2022/06/12 01:26:11;;;;;;;11.70;3.88;;;13.00;99.90;;;;;;5061847;28;20082;-78
2022/06/12 01:28:55;;;;;;;14.32;3.55;;;12.90;99.90;;;;;;5043124;28;20084;-78
2022/06/12 01:31:50;;;;;;;18.63;4.07;;;12.90;99.90;;;;;;5048300;28;20132;-78
2022/06/12 01:34:19;;;;;;;12.52;3.30;;;12.90;99.90;;;;;;5040347;28;20036;-78
2022/06/12 01:36:50;;;;;;;5.90;2.78;;;12.90;99.90;;;;;;5063589;28;20055;-80
2022/06/12 01:39:23;;;;;;;12.38;3.55;;;12.80;99.90;;;;;;5065957;28;20041;-79
2022/06/12 01:42:10;;;;;;;18.02;3.97;;;12.90;99.90;;;;;;5064292;28;20032;-78
2022/06/12 01:44:52;;;;;;;10.38;4.20;;;12.80;99.90;;;;;;5063880;28;20044;-79
2022/06/12 01:47:51;;;;;;;8.70;3.42;;;12.80;99.90;;;;;;5064787;28;20100;-79
2022/06/12 01:50:40;;;;;;;11.23;3.92;;;12.80;99.90;;;;;;5061185;22;20044;-77
2022/06/12 01:53:19;;;;;;;15.05;3.47;;;12.90;99.90;;;;;;5067063;28;20040;-80
2022/06/12 01:55:58;;;;;;;13.55;4.32;;;12.70;99.90;;;;;;5085626;28;20755;-79
2022/06/12 01:58:44;;;;;;;11.90;2.97;;;12.70;99.90;;;;;;5068559;28;20531;-79
2022/06/12 02:01:22;;;;;;;15.77;3.53;;;12.70;99.90;;;;;;5066978;28;20048;-79
2022/06/12 02:04:06;;;;;;;10.27;3.33;;;12.60;99.90;;;;;;5081520;28;20494;-79
2022/06/12 02:06:45;;;;;;;10.93;3.92;;;12.60;99.90;;;;;;5067889;28;20081;-78
2022/06/12 02:09:18;;;;;;;9.20;3.85;;;12.50;99.90;;;;;;5092905;28;20091;-78
2022/06/12 02:14:44;;;;;;;18.05;4.10;;;12.50;99.90;;;;;;5098353;28;20098;-78
2022/06/12 02:17:15;;;;;;;7.88;3.47;;;12.50;99.90;;;;;;5095561;28;20052;-77
2022/06/12 02:19:43;;;;;;;7.78;3.42;;;12.40;99.90;;;;;;5092806;28;20134;-76
2022/06/12 02:22:25;;;;;;;16.15;5.57;;;12.40;99.90;;;;;;5089283;28;20040;-78
2022/06/12 02:24:55;;;;;;;16.60;3.78;;;12.50;99.90;;;;;;5058973;28;20051;-76
2022/06/12 02:27:31;;;;;;;12.55;4.13;;;12.40;99.90;;;;;;5076986;28;20050;-76
2022/06/12 02:30:16;;;;;;;10.98;3.10;;;12.40;99.90;;;;;;5089471;28;20126;-78
2022/06/12 02:33:02;;;;;;;18.45;5.25;;;12.40;99.90;;;;;;5090045;28;20706;-78
2022/06/12 02:35:44;;;;;;;13.65;4.05;;;12.40;99.90;;;;;;5043396;28;20041;-77
2022/06/12 02:38:14;;;;;;;13.18;3.67;;;12.40;99.90;;;;;;5077376;28;20040;-78
2022/06/12 02:40:52;;;;;;;14.73;6.40;;;12.40;99.90;;;;;;5083109;28;20039;-76
2022/06/12 02:43:23;;;;;;;11.05;3.88;;;12.40;99.90;;;;;;5092671;28;20490;-80
2022/06/12 02:45:56;;;;;;;15.45;5.03;;;12.30;99.90;;;;;;5080693;28;20032;-75
2022/06/12 02:48:22;;;;;;;20.17;3.85;;;12.50;99.90;;;;;;5103862;28;20044;-77
2022/06/12 02:51:12;;;;;;;10.40;4.07;;;12.50;99.90;;;;;;5099350;28;20181;-77
2022/06/12 02:53:46;;;;;;;13.23;4.70;;;12.50;99.90;;;;;;5093414;28;20590;-77
2022/06/12 02:56:24;;;;;;;13.55;5.00;;;12.50;99.90;;;;;;5073734;28;20040;-78
2022/06/12 02:59:07;;;;;;;16.25;4.18;;;12.50;99.90;;;;;;5090325;28;20117;-77
2022/06/12 03:01:39;;;;;;;16.77;4.65;;;12.50;99.90;;;;;;5087895;28;20040;-77
2022/06/12 03:04:19;;;;;;;14.23;4.35;;;12.50;99.90;;;;;;5069287;28;20391;-78
2022/06/12 03:06:45;;;;;;;14.52;5.18;;;12.40;99.90;;;;;;5079469;28;20047;-79
2022/06/12 03:09:11;;;;;;;14.75;4.32;;;12.50;99.90;;;;;;5084247;28;20398;-78
2022/06/12 03:11:40;;;;;;;10.90;4.68;;;12.50;99.90;;;;;;5084008;28;20066;-79
2022/06/12 03:14:13;;;;;;;16.27;4.55;;;12.50;99.90;;;;;;5065109;28;20104;-78
2022/06/12 03:16:41;;;;;;;9.65;4.50;;;12.40;99.90;;;;;;5083366;28;20138;-77
2022/06/12 03:19:09;;;;;;;13.95;3.88;;;12.50;99.90;;;;;;5084504;28;20125;-78
2022/06/12 03:21:55;;;;;;;11.85;3.95;;;12.40;99.90;;;;;;5076026;28;20052;-78
2022/06/12 03:24:42;;;;;;;9.77;3.42;;;12.40;99.90;;;;;;5063624;28;20491;-78
2022/06/12 03:27:30;;;;;;;19.88;5.00;;;12.40;99.90;;;;;;5063802;28;20040;-79
2022/06/12 03:30:11;;;;;;;13.55;3.78;;;12.30;99.90;;;;;;5081876;28;20094;-79
2022/06/12 03:33:18;;;;;;;17.88;4.68;;;12.40;99.90;;;;;;5065592;28;20600;-79
2022/06/12 03:35:50;;;;;;;10.45;3.15;;;12.50;99.90;;;;;;5084936;28;20078;-80
2022/06/12 03:38:34;;;;;;;8.23;3.08;;;12.40;99.90;;;;;;5084399;28;20451;-79
2022/06/12 03:41:31;;;;;;;10.95;3.80;;;12.40;99.90;;;;;;5081191;28;20056;-78
2022/06/12 03:44:22;;;;;;;12.38;4.28;;;12.40;99.90;;;;;;5087088;28;20131;-78
2022/06/12 03:47:04;;;;;;;9.38;3.45;;;12.50;99.90;;;;;;5064286;28;20067;-79
2022/06/12 03:50:00;;;;;;;12.10;3.92;;;12.40;99.90;;;;;;5083490;28;20088;-80
2022/06/12 03:52:36;;;;;;;14.63;3.28;;;12.50;99.90;;;;;;5082130;28;20048;-78
2022/06/12 03:57:50;;;;;;;13.57;3.03;;;12.60;99.90;;;;;;5081015;28;20032;-78
2022/06/12 03:58:16;;;;;;;11.35;3.92;;;12.70;99.90;;;;;;5082860;28;20117;-78
2022/06/12 04:00:45;;;;;;;11.70;3.53;;;12.60;99.90;;;;;;5063627;28;20040;-78
2022/06/12 04:03:23;;;;;;;12.98;4.03;;;12.60;99.90;;;;;;5082810;28;20142;-78
2022/06/12 04:05:56;;;;;;;14.10;4.35;;;12.60;99.90;;;;;;5083413;28;20177;-76
2022/06/12 04:08:33;;;;;;;12.27;3.40;;;12.60;99.90;;;;;;5067198;28;20027;-79
2022/06/12 04:10:59;;;;;;;9.15;2.90;;;12.50;99.90;;;;;;5094715;28;20537;-79
2022/06/12 04:13:25;;;;;;;16.20;5.15;;;12.40;99.90;;;;;;5082990;28;20077;-78
2022/06/12 04:16:01;;;;;;;12.68;3.10;;;12.40;99.90;;;;;;5089868;28;20044;-77
2022/06/12 04:18:29;;;;;;;23.63;4.80;;;12.40;99.90;;;;;;5103520;28;20505;-77
2022/06/12 04:21:27;;;;;;;9.93;4.07;;;12.50;99.90;;;;;;5066929;28;20044;-79
2022/06/12 04:24:19;;;;;;;8.57;2.63;;;12.40;99.90;;;;;;5039844;28;20091;-78
2022/06/12 04:26:57;;;;;;;11.20;3.05;;;12.40;99.90;;;;;;5084923;28;20076;-78
2022/06/12 04:29:32;;;;;;;9.63;4.03;;;12.60;99.90;;;;;;5075587;28;20047;-79
2022/06/12 04:32:03;;;;;;;7.32;3.08;;;13.10;99.90;;;;;;5046832;28;20047;-78
2022/06/12 04:34:31;;;;;;;7.97;3.55;;;12.90;99.90;;;;;;5082675;28;20048;-78
2022/06/12 04:37:18;;;;;;;7.13;2.55;;;13.50;99.90;;;;;;5082167;28;20192;-78
2022/06/12 04:39:45;;;;;;;20.38;6.30;;;13.40;99.90;;;;;;5063183;28;20048;-78
2022/06/12 04:42:14;;;;;;;12.40;3.38;;;13.30;99.90;;;;;;5088048;28;20075;-79
2022/06/12 04:44:41;;;;;;;14.27;3.13;;;13.30;99.90;;;;;;5079860;28;20066;-77
2022/06/12 04:47:10;;;;;;;10.43;4.35;;;13.40;99.90;;;;;;5067202;28;20048;-77
2022/06/12 04:49:36;;;;;;;11.50;2.60;;;14.10;99.90;;;;;;5085999;28;20044;-79
2022/06/12 04:52:04;;;;;;;7.00;2.17;;;13.80;99.90;;;;;;5073975;28;20139;-78
2022/06/12 04:54:31;;;;;;;14.65;3.28;;;13.70;99.90;;;;;;5067839;28;20127;-79
2022/06/12 04:56:58;;;;;;;14.25;2.80;;;13.70;99.90;;;;;;5093541;28;20459;-79
2022/06/12 04:59:24;;;;;;;10.70;3.63;;;13.60;99.90;;;;;;5088695;28;20043;-78
2022/06/12 05:01:50;;;;;;;12.35;2.83;;;13.60;99.90;;;;;;5091152;28;20376;-78
2022/06/12 05:04:17;;;;;;;9.45;2.92;;;13.60;99.90;;;;;;5086525;28;20043;-79
2022/06/12 05:06:45;;;;;;;8.05;2.33;;;13.80;99.90;;;;;;5068645;28;20036;-80
2022/06/12 05:09:13;;;;;;;8.80;3.28;;;13.80;99.90;;;;;;5086244;28;20081;-78
2022/06/12 05:11:40;;;;;;;12.25;2.97;;;13.80;99.90;;;;;;5091679;28;20081;-79
2022/06/12 05:14:06;;;;;;;11.50;2.67;;;13.70;99.90;;;;;;5107055;28;20040;-80
2022/06/12 05:16:38;;;;;;;10.25;3.20;;;13.80;99.90;;;;;;5106297;28;20082;-79
2022/06/12 05:19:07;;;;;;;9.77;4.20;;;13.90;99.90;;;;;;5060108;28;20415;-79
2022/06/12 05:21:33;;;;;;;12.18;4.80;;;14.00;99.90;;;;;;5085138;28;20040;-76
2022/06/12 05:24:00;;;;;;;14.93;3.33;;;14.10;99.90;;;;;;5085015;28;20059;-76
2022/06/12 05:26:26;;;;;;;20.67;4.25;;;14.20;99.90;;;;;;5097391;28;20908;-77
2022/06/12 05:28:53;;;;;;;14.98;3.20;;;14.50;99.90;;;;;;5087652;28;20444;-77
2022/06/12 05:31:19;;;;;;;14.63;4.22;;;14.60;99.90;;;;;;5066105;28;20486;-76
2022/06/12 05:33:45;;;;;;;21.45;6.18;;;14.70;99.90;;;;;;5085620;28;20044;-77
2022/06/12 05:36:14;;;;;;;14.27;3.58;;;14.80;99.90;;;;;;5084477;28;20051;-77
2022/06/12 05:38:41;;;;;;;16.65;3.90;;;14.80;99.90;;;;;;5084922;28;20067;-77
2022/06/12 05:41:07;;;;;;;20.98;6.03;;;14.80;99.90;;;;;;5090171;28;20486;-76
2022/06/12 05:43:33;;;;;;;14.95;4.25;;;14.70;99.90;;;;;;5085075;28;20082;-77
2022/06/12 05:45:58;;;;;;;21.80;4.68;;;14.90;99.90;;;;;;5084714;28;20048;-78
2022/06/12 05:48:24;;;;;;;13.98;4.88;;;14.90;99.90;;;;;;5084645;28;20383;-77
2022/06/12 05:50:54;;;;;;;24.92;5.07;;;14.90;99.90;;;;;;5084079;28;20139;-77
2022/06/12 05:53:23;;;;;;;19.15;4.15;;;14.90;99.90;;;;;;5083513;28;20052;-78
2022/06/12 05:55:48;;;;;;;28.17;7.40;;;15.10;99.90;;;;;;5093791;28;20047;-75
2022/06/12 05:58:16;;;;;;;18.85;5.10;;;15.10;99.90;;;;;;5083571;28;20032;-77
2022/06/12 06:00:42;;;;;;;27.35;6.03;;;15.30;99.90;;;;;;5083165;28;20056;-77
2022/06/12 06:03:08;;;;;;;26.33;5.18;;;15.30;99.90;;;;;;5085148;28;20397;-78
2022/06/12 06:05:37;;;;;;;33.03;6.03;;;15.40;99.90;;;;;;5086068;28;20052;-78
2022/06/12 06:08:04;;;;;;;21.58;4.38;;;15.50;99.90;;;;;;5082028;28;20055;-77
2022/06/12 06:10:29;;;;;;;34.15;7.38;;;15.60;99.90;;;;;;5083680;28;20090;-77
2022/06/12 06:12:56;;;;;;;28.25;8.20;;;15.60;99.90;;;;;;5084502;28;20432;-78
2022/06/12 06:15:22;;;;;;;22.02;6.10;;;15.60;99.90;;;;;;5062440;28;20029;-78
2022/06/12 06:17:48;;;;;;;24.95;7.15;;;15.70;99.90;;;;;;5058077;28;20044;-79
2022/06/12 06:20:22;;;;;;;20.55;6.63;;;15.80;99.90;;;;;;5083786;28;20119;-77
2022/06/12 06:22:49;;;;;;;54.47;10.50;;;15.90;99.90;;;;;;5087409;28;20109;-77
2022/06/12 06:25:17;;;;;;;23.63;6.10;;;15.90;99.90;;;;;;5086955;28;20044;-76
2022/06/12 06:27:42;;;;;;;19.95;5.43;;;16.00;99.90;;;;;;5079311;28;20048;-75
2022/06/12 06:30:09;;;;;;;27.83;6.45;;;16.00;99.90;;;;;;5082757;28;21039;-77
2022/06/12 06:32:34;;;;;;;31.25;7.25;;;16.20;99.90;;;;;;5083026;28;20044;-78
2022/06/12 06:35:01;;;;;;;23.63;7.20;;;16.20;99.90;;;;;;5084667;28;20362;-76
2022/06/12 06:37:27;;;;;;;23.92;5.72;;;16.20;99.90;;;;;;5080907;28;20379;-78
2022/06/12 06:39:53;;;;;;;25.13;7.97;;;16.30;99.90;;;;;;5083077;28;20036;-79
2022/06/12 06:42:19;;;;;;;19.25;6.38;;;16.40;99.90;;;;;;5084496;28;20069;-76
2022/06/12 06:47:29;;;;;;;24.98;5.97;;;16.50;99.90;;;;;;5080079;28;20425;-78
2022/06/12 06:49:55;;;;;;;23.02;5.90;;;16.70;99.90;;;;;;5079526;28;20059;-78
2022/06/12 06:52:21;;;;;;;26.48;6.20;;;17.10;99.90;;;;;;5089943;28;20130;-76
2022/06/12 06:54:46;;;;;;;25.33;7.30;;;17.40;99.90;;;;;;5082227;28;20135;-77
2022/06/12 06:57:12;;;;;;;23.75;6.18;;;17.30;99.90;;;;;;5081800;28;20126;-86
2022/06/12 06:59:38;;;;;;;25.90;6.82;;;18.30;99.90;;;;;;5081769;28;20052;-79
2022/06/12 07:02:04;;;;;;;24.15;6.65;;;18.60;99.90;;;;;;5082141;28;20036;-79
2022/06/12 07:04:30;;;;;;;25.05;7.43;;;19.40;99.90;;;;;;5083698;28;20107;-79
2022/06/12 07:06:56;;;;;;;24.30;5.97;;;19.30;99.90;;;;;;5082581;28;20043;-80
2022/06/12 07:09:22;;;;;;;20.45;6.45;;;20.00;99.90;;;;;;5083162;28;20056;-80
2022/06/12 07:11:47;;;;;;;27.08;5.40;;;20.70;99.90;;;;;;5091453;28;20043;-79
2022/06/12 07:14:13;;;;;;;24.20;4.93;;;21.10;99.90;;;;;;5102914;28;20521;-80
2022/06/12 07:16:40;;;;;;;15.93;5.35;;;20.60;99.90;;;;;;5069248;28;20044;-77
2022/06/12 07:19:07;;;;;;;26.98;7.93;;;21.30;99.90;;;;;;5083164;28;20056;-79
2022/06/12 07:21:33;;;;;;;18.83;5.18;;;21.50;99.90;;;;;;5083618;28;20059;-79
2022/06/12 07:23:59;;;;;;;21.85;5.28;;;21.50;99.90;;;;;;5085510;28;20126;-80
2022/06/12 07:26:32;;;;;;;19.25;4.82;;;22.10;99.90;;;;;;5082760;28;20823;-79
2022/06/12 07:28:58;;;;;;;19.70;5.60;;;22.30;99.90;;;;;;5065655;28;20115;-79
2022/06/12 07:31:25;;;;;;;17.67;5.68;;;22.30;99.90;;;;;;5090560;28;20043;-78
2022/06/12 07:33:51;;;;;;;27.17;8.70;;;22.30;99.90;;;;;;5086766;28;20068;-78
2022/06/12 07:36:18;;;;;;;20.50;6.47;;;20.80;99.90;;;;;;5081732;28;20082;-85
2022/06/12 07:38:46;;;;;;;24.67;6.40;;;21.80;99.90;;;;;;5082488;28;20040;-76
2022/06/12 07:41:13;;;;;;;22.60;5.32;;;22.60;99.90;;;;;;5082636;28;20482;-77
2022/06/12 07:43:40;;;;;;;18.83;4.95;;;23.10;99.90;;;;;;5082933;28;20043;-76
2022/06/12 07:46:09;;;;;;;14.38;4.20;;;23.20;99.90;;;;;;5081860;28;20310;-78
2022/06/12 07:48:35;;;;;;;15.60;3.90;;;23.20;99.90;;;;;;5103791;28;20044;-78
2022/06/12 07:51:04;;;;;;;12.32;3.05;;;22.50;99.90;;;;;;5085641;28;20048;-79
2022/06/12 07:53:30;;;;;;;21.75;5.05;;;21.50;99.90;;;;;;5081717;28;20052;-78
2022/06/12 07:55:57;;;;;;;17.67;4.45;;;21.40;99.90;;;;;;5082374;28;20063;-77
2022/06/12 07:58:24;;;;;;;21.38;3.80;;;20.90;99.90;;;;;;5082243;28;20047;-78
2022/06/12 08:00:56;;;;;;;15.20;4.57;;;21.00;99.90;;;;;;5080248;28;20063;-77
2022/06/12 08:03:22;;;;;;;33.22;6.55;;;21.10;99.90;;;;;;5081573;28;20028;-80
2022/06/12 08:05:48;;;;;;;12.05;4.68;;;21.00;99.90;;;;;;5080556;28;20076;-78
2022/06/12 08:08:14;;;;;;;11.15;3.60;;;20.60;99.90;;;;;;5080424;28;20036;-77
2022/06/12 08:10:39;;;;;;;12.75;3.10;;;20.10;99.90;;;;;;5060081;28;20597;-77
2022/06/12 08:13:07;;;;;;;13.65;3.60;;;20.40;99.90;;;;;;5064205;28;20562;-77
2022/06/12 08:15:34;;;;;;;16.83;3.10;;;20.30;99.90;;;;;;5099849;28;20027;-77
2022/06/12 08:18:00;;;;;;;12.32;3.00;;;20.40;99.90;;;;;;5082165;28;20044;-77
2022/06/12 08:20:28;;;;;;;10.57;2.72;;;20.30;99.90;;;;;;5086613;28;20418;-76
2022/06/12 08:23:26;;;;;;;14.82;3.70;;;20.00;99.90;;;;;;5079582;28;20052;-77
2022/06/12 08:25:53;;;;;;;9.38;3.00;;;20.70;99.90;;;;;;5086944;28;20068;-78
2022/06/12 08:28:19;;;;;;;17.70;4.90;;;20.90;99.90;;;;;;5086907;28;20048;-77
2022/06/12 08:30:45;;;;;;;14.00;3.63;;;20.50;99.90;;;;;;5086329;28;20039;-78
2022/06/12 08:33:10;;;;;;;10.63;3.25;;;20.10;99.90;;;;;;5083784;28;20063;-76
2022/06/12 08:35:36;;;;;;;10.55;3.40;;;20.10;99.90;;;;;;5086269;28;20058;-76
2022/06/12 08:38:02;;;;;;;14.65;2.88;;;19.90;99.90;;;;;;5082933;28;20040;-78
2022/06/12 08:40:35;;;;;;;11.27;2.47;;;19.50;99.90;;;;;;5086319;28;20062;-79
2022/06/12 08:43:42;;;;;;;12.23;3.22;;;19.40;99.90;;;;;;5083532;28;20051;-80
2022/06/12 08:46:28;;;;;;;9.45;2.83;;;19.90;99.90;;;;;;5065428;28;20036;-79
2022/06/12 08:49:09;;;;;;;11.27;2.17;;;20.40;99.90;;;;;;5052667;28;20036;-78
2022/06/12 08:51:42;;;;;;;10.18;3.13;;;21.00;99.90;;;;;;5086273;28;20040;-79
2022/06/12 08:54:21;;;;;;;7.70;2.17;;;20.60;99.90;;;;;;5084657;28;20040;-79
2022/06/12 08:56:52;;;;;;;9.60;2.63;;;20.60;99.90;;;;;;5095329;28;20070;-78
2022/06/12 08:59:42;;;;;;;13.57;3.42;;;20.40;99.90;;;;;;5097115;28;20123;-79
2022/06/12 09:02:26;;;;;;;10.82;4.43;;;19.90;99.90;;;;;;5085540;28;20520;-78
2022/06/12 09:04:52;;;;;;;9.13;3.22;;;19.90;99.90;;;;;;5083241;28;20035;-80
2022/06/12 09:07:38;;;;;;;9.65;4.28;;;20.70;99.90;;;;;;5085800;28;20366;-79
2022/06/12 09:10:32;;;;;;;10.73;3.97;;;20.70;99.90;;;;;;5084818;28;20072;-76
2022/06/12 09:13:07;;;;;;;7.95;2.17;;;20.50;99.90;;;;;;5055606;28;20055;-79
2022/06/12 09:15:48;;;;;;;7.18;2.30;;;19.90;99.90;;;;;;5084976;28;20040;-78
2022/06/12 09:18:38;;;;;;;10.23;2.55;;;19.90;99.90;;;;;;5081594;28;20040;-79
2022/06/12 09:21:40;;;;;;;7.68;2.00;;;20.10;99.90;;;;;;5070814;28;20044;-81
2022/06/12 09:24:21;;;;;;;5.53;2.38;;;20.80;99.90;;;;;;5085963;28;20052;-79
2022/06/12 09:27:02;;;;;;;11.75;3.67;;;20.90;99.90;;;;;;5099920;28;20031;-79
2022/06/12 09:29:49;;;;;;;6.07;3.35;;;20.80;99.90;;;;;;5098364;28;20052;-81
2022/06/12 09:32:29;;;;;;;5.03;1.48;;;20.50;99.90;;;;;;5085039;28;20044;-78
2022/06/12 09:35:18;;;;;;;11.00;2.83;;;21.10;99.90;;;;;;5081642;28;20711;-79
2022/06/12 09:38:19;;;;;;;9.13;2.65;;;21.40;99.90;;;;;;5085526;28;20044;-80
2022/06/12 09:41:12;;;;;;;8.15;1.98;;;20.80;99.90;;;;;;5094693;28;20386;-81
2022/06/12 09:43:46;;;;;;;7.80;1.85;;;20.40;99.90;;;;;;5088482;28;20051;-79
2022/06/12 09:46:22;;;;;;;9.68;2.85;;;20.10;99.90;;;;;;5084651;28;20039;-80
2022/06/12 09:48:56;;;;;;;8.88;2.85;;;19.70;99.90;;;;;;5085172;28;20048;-80
2022/06/12 09:51:52;;;;;;;9.45;2.35;;;19.80;99.90;;;;;;5083681;28;20135;-80
2022/06/12 09:54:35;;;;;;;6.50;2.50;;;20.20;99.90;;;;;;5084034;28;20885;-80
2022/06/12 09:57:08;;;;;;;12.70;2.65;;;20.50;99.90;;;;;;5105810;28;20039;-80
2022/06/12 09:59:54;;;;;;;7.25;2.08;;;20.50;99.90;;;;;;5098060;28;20407;-80
2022/06/12 10:02:31;;;;;;;10.35;3.13;;;21.00;99.90;;;;;;5081383;28;20521;-79
2022/06/12 10:05:24;;;;;;;10.13;2.00;;;21.30;99.90;;;;;;5078548;28;20128;-80
2022/06/12 10:08:05;;;;;;;9.43;2.88;;;20.90;99.90;;;;;;5075911;28;20052;-80
2022/06/12 10:10:43;;;;;;;5.97;1.75;;;21.00;99.90;;;;;;5067107;28;20075;-79
2022/06/12 10:13:14;;;;;;;6.47;1.92;;;20.60;99.90;;;;;;5082108;28;20044;-80
2022/06/12 10:15:45;;;;;;;6.63;2.63;;;21.10;99.90;;;;;;5083183;28;20044;-78
2022/06/12 10:18:42;;;;;;;15.18;3.17;;;21.40;99.90;;;;;;5083227;28;20040;-80
2022/06/12 10:21:14;;;;;;;10.63;1.77;;;21.80;99.90;;;;;;5076704;28;20135;-77
2022/06/12 10:23:40;;;;;;;3.92;1.95;;;21.80;99.90;;;;;;5082546;28;20040;-78
2022/06/12 10:26:23;;;;;;;6.28;1.75;;;21.50;99.90;;;;;;5102484;28;20086;-79
2022/06/12 10:29:11;;;;;;;5.35;2.22;;;21.40;99.90;;;;;;5095523;28;20507;-78
2022/06/12 10:32:10;;;;;;;8.23;2.63;;;21.20;99.90;;;;;;5083538;28;20398;-80
2022/06/12 10:34:36;;;;;;;6.35;2.20;;;20.80;99.90;;;;;;5060537;28;20059;-80
2022/06/12 10:37:09;;;;;;;7.93;2.25;;;20.70;99.90;;;;;;5084887;28;20399;-81
2022/06/12 10:39:35;;;;;;;6.85;1.80;;;21.20;99.90;;;;;;5084739;28;20096;-80
2022/06/12 10:42:04;;;;;;;7.32;2.20;;;21.60;99.90;;;;;;5066651;28;20037;-78
2022/06/12 10:44:35;;;;;;;8.60;1.73;;;21.20;99.90;;;;;;5049065;28;20127;-80
2022/06/12 10:47:14;;;;;;;7.93;1.98;;;21.40;99.90;;;;;;5083032;28;20410;-80
2022/06/12 10:49:40;;;;;;;5.38;1.17;;;21.70;99.90;;;;;;5084149;28;20062;-79
2022/06/12 10:52:12;;;;;;;15.43;2.72;;;21.60;99.90;;;;;;5084523;28;20060;-81
2022/06/12 10:54:38;;;;;;;10.20;1.70;;;21.30;99.90;;;;;;5083497;28;20043;-79
2022/06/12 10:57:18;;;;;;;5.90;2.08;;;21.60;99.90;;;;;;5083121;28;20414;-78
2022/06/12 10:59:55;;;;;;;7.53;2.75;;;21.90;99.90;;;;;;5064439;28;20058;-77
2022/06/12 11:02:24;;;;;;;8.48;2.15;;;21.90;99.90;;;;;;5082840;28;20048;-77
2022/06/12 11:05:16;;;;;;;6.40;1.88;;;21.50;99.90;;;;;;5080865;28;20044;-78
2022/06/12 11:07:53;;;;;;;5.85;2.35;;;21.70;99.90;;;;;;5088035;28;20054;-79
2022/06/12 11:10:49;;;;;;;9.95;2.92;;;21.80;99.90;;;;;;5105289;28;20043;-78
2022/06/12 11:13:51;;;;;;;8.32;2.05;;;21.40;99.90;;;;;;5084754;28;20512;-79
2022/06/12 11:16:41;;;;;;;11.80;2.45;;;21.60;99.90;;;;;;5047437;28;20051;-78
2022/06/12 11:19:11;;;;;;;6.30;2.33;;;21.20;99.90;;;;;;5085426;28;20058;-81
2022/06/12 11:21:58;;;;;;;6.93;1.90;;;21.20;99.90;;;;;;5086451;28;20040;-80
2022/06/12 11:24:53;;;;;;;5.88;2.25;;;20.70;99.90;;;;;;5083584;28;20052;-80
2022/06/12 11:27:34;;;;;;;6.63;2.88;;;20.30;99.90;;;;;;5080010;28;20048;-77
2022/06/12 11:29:59;;;;;;;8.45;2.75;;;20.60;99.90;;;;;;5084429;28;20446;-78
2022/06/12 11:32:46;;;;;;;7.32;2.42;;;20.50;99.90;;;;;;5085187;28;20051;-80
2022/06/12 11:35:39;;;;;;;8.50;2.40;;;20.80;99.90;;;;;;5081961;28;20662;-79
2022/06/12 11:38:31;;;;;;;4.13;2.05;;;21.30;99.90;;;;;;5084450;28;20435;-79
2022/06/12 11:41:00;;;;;;;6.50;2.83;;;21.30;99.90;;;;;;5081154;28;20048;-79
2022/06/12 11:43:32;;;;;;;8.73;2.63;;;21.20;99.90;;;;;;5062915;28;20485;-80
2022/06/12 11:46:05;;;;;;;11.18;2.22;;;20.80;99.90;;;;;;5062852;28;20040;-80
2022/06/12 11:48:31;;;;;;;5.53;2.08;;;21.10;99.90;;;;;;5074444;28;20476;-80
2022/06/12 11:51:29;;;;;;;6.88;1.80;;;21.10;99.90;;;;;;5103360;28;20056;-80
2022/06/12 11:54:10;;;;;;;5.25;2.00;;;21.10;99.90;;;;;;5081873;28;20597;-79
2022/06/12 11:56:42;;;;;;;14.07;2.88;;;20.70;99.90;;;;;;5081064;28;20032;-81
2022/06/12 11:59:10;;;;;;;10.45;2.58;;;20.40;99.90;;;;;;5063926;28;20425;-80
2022/06/12 12:02:07;;;;;;;8.85;2.25;;;20.20;99.90;;;;;;5083776;28;20177;-80
2022/06/12 12:05:11;;;;;;;11.90;3.65;;;20.20;99.90;;;;;;5082410;28;20408;-78
2022/06/12 12:07:52;;;;;;;9.18;3.25;;;20.40;99.90;;;;;;5051777;28;20056;-78
2022/06/12 12:10:56;;;;;;;7.13;2.03;;;20.40;99.90;;;;;;5078072;28;20398;-79
2022/06/12 12:13:31;;;;;;;7.05;2.40;;;19.90;99.90;;;;;;4995016;28;20463;-76
2022/06/12 12:16:04;;;;;;;7.35;1.85;;;20.40;99.90;;;;;;5070412;28;20546;-78
2022/06/12 12:18:43;;;;;;;7.40;1.83;;;19.70;99.90;;;;;;5077694;28;20048;-80
2022/06/12 12:21:21;;;;;;;5.47;1.93;;;20.10;99.90;;;;;;5080919;28;20399;-78
2022/06/12 12:23:48;;;;;;;10.75;2.90;;;19.70;99.90;;;;;;5078681;28;20032;-79
2022/06/12 12:26:23;;;;;;;7.10;1.95;;;19.90;99.90;;;;;;5082300;28;20047;-78
2022/06/12 12:29:01;;;;;;;5.63;1.70;;;19.90;99.90;;;;;;5078983;28;20035;-76
2022/06/12 12:31:28;;;;;;;5.63;2.28;;;20.20;99.90;;;;;;5080112;28;20066;-78
2022/06/12 12:33:56;;;;;;;7.78;2.05;;;20.80;99.90;;;;;;5060938;28;20522;-79
2022/06/12 12:42:39;;;;;;;7.57;2.03;;;20.30;99.90;;;;;;5078866;28;20059;-78
2022/06/12 12:45:23;;;;;;;6.68;2.13;;;20.40;99.90;;;;;;5076878;28;20048;-78
2022/06/12 12:47:59;;;;;;;11.30;2.05;;;20.50;99.90;;;;;;5081082;28;20097;-78
2022/06/12 12:50:26;;;;;;;5.95;2.05;;;20.20;99.90;;;;;;5081575;28;20059;-77
2022/06/12 12:52:57;;;;;;;6.90;2.38;;;19.90;99.90;;;;;;5081017;28;20612;-78
2022/06/12 12:55:29;;;;;;;10.13;2.85;;;20.30;99.90;;;;;;5082164;28;20040;-79
2022/06/12 12:57:58;;;;;;;7.28;2.35;;;20.80;99.90;;;;;;5082120;28;20048;-78
2022/06/12 13:00:33;;;;;;;7.78;2.53;;;20.20;99.90;;;;;;5080080;28;20055;-78
2022/06/12 13:03:06;;;;;;;7.00;1.58;;;20.30;99.90;;;;;;5081508;28;20063;-78
2022/06/12 13:05:41;;;;;;;13.70;2.28;;;20.70;99.90;;;;;;5079084;28;20040;-78
2022/06/12 13:08:41;;;;;;;7.82;1.92;;;21.00;99.90;;;;;;5085669;28;20080;-78
2022/06/12 13:11:35;;;;;;;7.10;2.63;;;20.80;99.90;;;;;;5080949;28;20055;-78
2022/06/12 13:14:40;;;;;;;7.95;2.13;;;20.50;99.90;;;;;;5084198;28;20047;-77
2022/06/12 13:17:41;;;;;;;9.82;2.83;;;20.30;99.90;;;;;;5084208;28;20119;-79
2022/06/12 13:20:29;;;;;;;6.90;1.92;;;20.40;99.90;;;;;;5053693;28;20465;-77
2022/06/12 13:22:54;;;;;;;5.43;2.75;;;20.80;99.90;;;;;;5056424;28;20051;-77
2022/06/12 13:25:25;;;;;;;8.48;3.15;;;21.00;99.90;;;;;;5065574;28;20423;-76
2022/06/12 13:27:54;;;;;;;11.38;3.10;;;20.70;99.90;;;;;;5065516;28;20048;-76
2022/06/12 13:30:33;;;;;;;6.73;2.43;;;20.60;99.90;;;;;;5077617;28;20391;-75
2022/06/12 13:33:07;;;;;;;9.52;2.47;;;20.10;99.90;;;;;;5083904;28;20052;-77